createdAt,value
2022-08-19T01:36:08.219Z,14.97
2022-08-19T01:41:12.044Z,14.97
2022-08-19T01:46:13.835Z,15.16
2022-08-19T01:51:15.806Z,15.05
2022-08-19T01:56:19.267Z,15.09
2022-08-19T02:01:21.589Z,14.88
2022-08-19T02:06:28.642Z,14.93
2022-08-19T02:11:34.585Z,14.97
2022-08-19T02:16:37.314Z,14.99
2022-08-19T02:21:39.286Z,14.81
2022-08-19T02:26:41.178Z,14.68
2022-08-19T02:31:43.850Z,14.77
2022-08-19T02:36:45.618Z,14.93
2022-08-19T02:41:56.939Z,14.99
2022-08-19T02:46:58.843Z,15.07
2022-08-19T02:52:00.387Z,15.11
2022-08-19T02:57:02.171Z,15.29
2022-08-19T03:02:04.175Z,15.36
2022-08-19T03:07:10.443Z,15.46
2022-08-19T03:12:12.699Z,15.73
2022-08-19T03:17:14.420Z,15.66
2022-08-19T03:22:16.234Z,15.62
2022-08-19T03:27:18.518Z,15.76
2022-08-19T03:32:32.432Z,15.72
2022-08-19T03:37:35.847Z,15.86
2022-08-19T03:42:49.278Z,15.31
2022-08-19T03:47:51.168Z,15.35
2022-08-19T03:52:53.723Z,15.30
2022-08-19T03:57:59.102Z,15.11
2022-08-19T04:03:01.883Z,15.02
2022-08-19T04:08:03.760Z,15.04
2022-08-19T04:13:07.180Z,15.02
2022-08-19T04:18:12.383Z,14.99
2022-08-19T04:23:14.974Z,14.90
2022-08-19T04:28:16.819Z,14.80
2022-08-19T04:33:26.593Z,14.72
2022-08-19T04:38:30.060Z,14.66
2022-08-19T04:43:32.197Z,14.63
2022-08-19T04:48:34.334Z,14.40
2022-08-19T04:53:38.969Z,14.69
2022-08-19T04:58:43.469Z,14.58
2022-08-19T05:03:45.241Z,14.63
2022-08-19T05:08:48.081Z,14.60
2022-08-19T05:13:49.826Z,14.74
2022-08-19T05:19:10.589Z,14.75
2022-08-19T05:24:13.647Z,14.95
2022-08-19T05:29:17.443Z,14.88
2022-08-19T05:34:23.139Z,14.99
2022-08-19T05:39:30.778Z,15.18
2022-08-19T05:44:34.594Z,15.14
2022-08-19T05:49:37.876Z,15.38
2022-08-19T05:54:42.486Z,15.67
2022-08-19T05:59:46.739Z,15.84
2022-08-19T06:04:48.625Z,15.77
2022-08-19T06:09:54.465Z,16.12
2022-08-19T06:15:07.489Z,16.10
2022-08-19T06:20:14.525Z,16.38
2022-08-19T06:25:16.480Z,16.81
2022-08-19T06:30:18.550Z,17.16
2022-08-19T06:35:20.306Z,17.38
2022-08-19T06:40:22.440Z,17.57
2022-08-19T06:45:25.063Z,17.71
2022-08-19T06:50:36.835Z,17.78
2022-08-19T06:55:42.169Z,18.19
2022-08-19T07:00:43.819Z,18.27
2022-08-19T07:05:46.233Z,19.14
2022-08-19T07:10:48.952Z,19.83
2022-08-19T07:15:51.306Z,20.46
2022-08-19T07:21:04.053Z,20.50
2022-08-19T07:26:08.267Z,20.38
2022-08-19T07:31:17.662Z,20.96
2022-08-19T07:36:33.179Z,21.32
2022-08-19T07:41:38.098Z,21.23
2022-08-19T07:46:46.514Z,21.24
2022-08-19T07:51:53.763Z,22.58
2022-08-19T07:56:55.841Z,22.00
2022-08-19T08:08:51.757Z,23.27
2022-08-19T08:14:01.221Z,22.74
2022-08-19T08:19:14.726Z,23.25
2022-08-19T08:24:22.805Z,23.96
2022-08-19T08:29:35.003Z,23.35
2022-08-19T08:34:38.292Z,24.23
2022-08-19T08:39:42.236Z,24.21
2022-08-19T08:51:15.928Z,23.97
2022-08-19T08:56:22.059Z,25.86
2022-08-19T09:01:24.149Z,25.32
2022-08-19T09:07:18.431Z,25.34
2022-08-19T09:13:09.686Z,25.78
2022-08-19T09:19:08.050Z,26.43
2022-08-19T09:24:10.186Z,26.36
2022-08-19T09:29:12.228Z,26.31
2022-08-19T09:34:39.403Z,25.66
2022-08-19T09:39:45.960Z,26.22
2022-08-19T09:51:52.044Z,26.71
2022-08-19T09:56:54.875Z,26.32
2022-08-19T10:02:03.870Z,26.13
2022-08-19T10:07:43.205Z,27.44
2022-08-19T10:12:48.836Z,26.96
2022-08-19T10:17:55.294Z,26.44
2022-08-19T10:22:57.321Z,26.52
2022-08-19T10:27:58.905Z,26.62
2022-08-19T10:33:00.569Z,26.40
2022-08-19T10:38:03.375Z,26.41
2022-08-19T10:43:05.714Z,27.17
2022-08-19T10:48:07.278Z,27.49
2022-08-19T10:53:13.804Z,26.67
2022-08-19T10:58:18.024Z,27.62
2022-08-19T11:03:19.707Z,27.63
2022-08-19T11:08:23.679Z,26.63
2022-08-19T11:13:26.216Z,27.44
2022-08-19T11:18:27.845Z,26.98
2022-08-19T11:23:29.422Z,27.40
2022-08-19T11:28:30.989Z,27.45
2022-08-19T11:33:33.857Z,27.69
2022-08-19T11:38:36.797Z,26.72
2022-08-19T11:43:38.730Z,27.01
2022-08-19T11:48:40.816Z,27.55
2022-08-19T11:53:42.610Z,27.19
2022-08-19T11:58:44.620Z,27.40
2022-08-19T12:03:48.388Z,26.81
2022-08-19T12:08:50.016Z,27.06
2022-08-19T12:13:52.452Z,27.05
2022-08-19T12:18:55.513Z,26.49
2022-08-19T12:23:58.905Z,26.83
2022-08-19T12:29:00.646Z,27.32
2022-08-19T12:34:03.481Z,26.82
2022-08-19T12:39:05.333Z,27.58
2022-08-19T12:44:07.451Z,26.97
2022-08-19T12:49:52.100Z,27.07
2022-08-19T12:54:32.860Z,26.85
2022-08-19T12:59:38.775Z,27.00
2022-08-19T13:04:41.817Z,27.55
2022-08-19T13:09:43.569Z,27.38
2022-08-19T13:14:51.451Z,27.16
2022-08-19T13:19:53.201Z,27.27
2022-08-19T13:24:54.872Z,26.99
2022-08-19T13:30:14.826Z,26.67
2022-08-19T13:35:17.842Z,26.69
2022-08-19T13:40:24.770Z,26.69
2022-08-19T13:45:29.329Z,27.03
2022-08-19T13:50:32.556Z,27.93
2022-08-19T13:55:35.145Z,27.10
2022-08-19T14:00:40.795Z,27.21
2022-08-19T14:05:42.516Z,27.67
2022-08-19T14:10:45.753Z,27.41
2022-08-19T14:15:48.363Z,26.90
2022-08-19T14:20:50.115Z,27.73
2022-08-19T14:25:51.977Z,27.66
2022-08-19T14:30:55.313Z,27.16
2022-08-19T14:35:59.986Z,27.16
2022-08-19T14:41:20.437Z,27.33
2022-08-19T14:46:29.548Z,26.87
2022-08-19T14:51:31.907Z,26.69
2022-08-19T14:56:33.811Z,26.17
2022-08-19T15:01:36.137Z,26.88
2022-08-19T15:06:38.433Z,27.35
2022-08-19T15:11:40.130Z,27.16
2022-08-19T15:16:42.800Z,26.97
2022-08-19T15:21:44.604Z,26.67
2022-08-19T15:26:46.232Z,26.32
2022-08-19T15:31:47.804Z,25.84
2022-08-19T15:36:50.900Z,25.64
2022-08-19T15:41:52.787Z,25.48
2022-08-19T15:46:54.595Z,25.01
2022-08-19T15:51:58.001Z,24.95
2022-08-19T15:57:18.857Z,24.81
2022-08-19T16:02:42.380Z,24.75
2022-08-19T16:07:44.013Z,24.64
2022-08-19T16:12:45.709Z,24.72
2022-08-19T16:17:56.742Z,24.96
2022-08-19T16:22:59.429Z,24.35
2022-08-19T16:28:07.290Z,24.23
2022-08-19T16:33:10.519Z,24.08
2022-08-19T16:38:12.126Z,24.03
2022-08-19T16:43:13.676Z,23.51
2022-08-19T16:48:15.278Z,23.36
2022-08-19T16:53:20.281Z,23.12
2022-08-19T17:05:50.192Z,23.17
2022-08-19T17:11:17.048Z,23.12
2022-08-19T17:16:19.904Z,23.12
2022-08-19T17:21:29.193Z,23.04
2022-08-19T17:26:31.982Z,23.18
2022-08-19T17:31:34.788Z,23.03
2022-08-19T17:36:36.632Z,22.91
2022-08-19T17:41:38.787Z,23.00
2022-08-19T17:46:40.507Z,22.84
2022-08-19T17:52:20.296Z,22.76
2022-08-19T17:57:31.039Z,22.63
2022-08-19T18:02:32.813Z,22.83
2022-08-19T18:07:36.404Z,22.65
2022-08-19T18:12:40.742Z,22.64
2022-08-19T18:17:42.488Z,22.28
2022-08-19T18:22:47.588Z,22.46
2022-08-19T18:27:49.399Z,22.43
2022-08-19T18:32:52.966Z,22.31
2022-08-19T18:38:02.105Z,22.16
2022-08-19T18:43:20.463Z,22.06
2022-08-19T18:48:41.551Z,22.21
2022-08-19T18:53:45.316Z,22.06
2022-08-19T18:58:46.986Z,21.98
2022-08-19T19:03:54.109Z,22.00
2022-08-19T19:08:56.994Z,21.93
2022-08-19T19:14:02.022Z,21.70
2022-08-19T19:19:06.485Z,21.67
2022-08-19T19:24:09.022Z,21.63
2022-08-19T19:29:10.750Z,21.66
2022-08-19T19:34:28.936Z,21.12
2022-08-19T19:39:45.240Z,21.47
2022-08-19T19:44:51.302Z,21.61
2022-08-19T19:50:13.780Z,21.74
2022-08-19T19:55:20.650Z,21.74
2022-08-19T20:00:22.383Z,21.71
2022-08-19T20:05:24.870Z,21.68
2022-08-19T20:10:26.760Z,21.55
2022-08-19T20:15:29.416Z,21.60
2022-08-19T20:20:31.855Z,21.65
2022-08-19T20:25:34.340Z,21.54
2022-08-19T20:30:35.940Z,21.59
2022-08-19T20:35:40.754Z,21.47
2022-08-19T20:40:42.833Z,21.38
2022-08-19T20:45:44.627Z,21.26
2022-08-19T20:50:47.655Z,21.45
2022-08-19T20:55:50.296Z,21.20
2022-08-19T21:00:55.520Z,21.33
2022-08-19T21:05:57.604Z,21.23
2022-08-19T21:10:59.462Z,21.19
2022-08-19T21:16:01.150Z,21.03
2022-08-19T21:21:03.398Z,21.12
2022-08-19T21:26:06.096Z,21.18
2022-08-19T21:31:10.508Z,21.09
2022-08-19T21:36:12.282Z,20.98
2022-08-19T21:41:13.839Z,20.97
2022-08-19T21:46:16.352Z,20.82
2022-08-19T21:51:18.049Z,20.78
2022-08-19T21:56:19.792Z,20.99
2022-08-19T22:08:02.489Z,20.66
2022-08-19T22:13:04.566Z,20.75
2022-08-19T22:18:06.202Z,20.71
2022-08-19T22:23:07.950Z,20.63
2022-08-19T22:28:12.458Z,20.51
2022-08-19T22:33:17.901Z,20.61
2022-08-19T22:38:19.710Z,20.65
2022-08-19T22:43:24.734Z,20.58
2022-08-19T22:48:29.376Z,20.61
2022-08-19T22:53:32.923Z,20.65
2022-08-19T22:58:36.416Z,20.46
2022-08-19T23:03:39.779Z,20.47
2022-08-19T23:08:42.993Z,20.45
2022-08-19T23:13:45.297Z,20.40
2022-08-19T23:18:46.874Z,20.34
2022-08-19T23:23:48.521Z,20.35
2022-08-19T23:29:08.875Z,20.38
2022-08-19T23:34:11.260Z,20.31
2022-08-19T23:39:13.059Z,20.25
2022-08-19T23:44:15.093Z,20.30
2022-08-19T23:49:17.170Z,20.27
2022-08-19T23:54:18.792Z,20.34
2022-08-19T23:59:20.443Z,20.37
